Time,TemperatureF,DewpointF,PressureIn,WindDirection,WindDirectionDegrees,WindSpeedMPH,WindSpeedGustMPH,Humidity,HourlyPrecipIn,Conditions,Clouds,dailyrainin,SoftwareType,DateUTC
2016-07-26 00:00:00,72.3,72.3,29.91,SSW,202,0.0,0.0,100,0.00,,,0.00,WeatherDisplay:10.33,2016-07-26 07:00:00,
2016-07-26 00:15:00,71.8,71.8,29.91,SSW,202,0.0,0.0,100,0.00,,,0.00,WeatherDisplay:10.33,2016-07-26 07:15:00,
2016-07-26 00:30:00,72.0,72.0,29.91,SSW,202,0.0,0.0,100,0.00,,,0.00,WeatherDisplay:10.33,2016-07-26 07:30:00,
2016-07-26 00:45:00,72.7,72.7,29.89,SSW,202,0.0,0.0,100,0.00,,,0.00,WeatherDisplay:10.33,2016-07-26 07:45:00,
2016-07-26 01:00:00,71.9,71.9,29.89,SSW,202,0.0,0.0,100,0.00,,,0.00,WeatherDisplay:10.33,2016-07-26 08:00:00,
2016-07-26 01:15:00,72.0,72.0,29.89,SSW,202,0.0,0.0,100,0.00,,,0.00,WeatherDisplay:10.33,2016-07-26 08:15:00,
2016-07-26 01:30:00,72.0,72.0,29.89,SSW,202,0.0,0.0,100,0.00,,,0.00,WeatherDisplay:10.33,2016-07-26 08:30:00,
2016-07-26 01:45:00,71.3,71.3,29.89,SSW,202,0.0,0.0,100,0.00,,,0.00,WeatherDisplay:10.33,2016-07-26 08:45:00,
2016-07-26 02:00:00,70.8,70.8,29.89,SSW,202,0.0,0.0,100,0.00,,,0.00,WeatherDisplay:10.33,2016-07-26 09:00:00,
2016-07-26 02:15:00,70.6,70.6,29.89,SSW,202,0.0,0.0,100,0.00,,,0.00,WeatherDisplay:10.33,2016-07-26 09:15:00,
2016-07-26 02:30:00,70.3,70.3,29.89,SSW,202,0.0,0.0,100,0.00,,,0.00,WeatherDisplay:10.33,2016-07-26 09:30:00,
2016-07-26 02:45:00,70.1,70.1,29.89,SSW,202,0.0,0.0,100,0.00,,,0.00,WeatherDisplay:10.33,2016-07-26 09:45:00,
2016-07-26 03:00:00,69.9,69.9,29.88,SSW,202,0.0,0.0,100,0.00,,,0.00,WeatherDisplay:10.33,2016-07-26 10:00:00,
2016-07-26 03:15:00,69.9,69.9,29.88,SSW,202,0.0,0.0,100,0.00,,,0.00,WeatherDisplay:10.33,2016-07-26 10:15:00,
2016-07-26 03:30:00,70.9,70.9,29.88,SSW,202,0.0,0.0,100,0.00,,,0.00,WeatherDisplay:10.33,2016-07-26 10:30:00,
2016-07-26 03:45:00,70.1,70.1,29.87,SSW,202,0.0,0.0,100,0.00,,,0.00,WeatherDisplay:10.33,2016-07-26 10:45:00,
2016-07-26 04:00:00,69.8,69.8,29.86,SSW,202,0.0,0.0,100,0.00,,,0.00,WeatherDisplay:10.33,2016-07-26 11:00:00,
2016-07-26 04:15:00,70.6,70.6,29.87,SSW,202,0.0,0.0,100,0.00,,,0.00,WeatherDisplay:10.33,2016-07-26 11:15:00,
2016-07-26 04:30:00,69.9,69.9,29.86,SSW,202,0.0,0.0,100,0.00,,,0.00,WeatherDisplay:10.33,2016-07-26 11:30:00,
2016-07-26 04:45:00,70.2,70.2,29.86,SSW,202,0.0,0.0,100,0.00,,,0.00,WeatherDisplay:10.33,2016-07-26 11:45:00,
2016-07-26 05:00:00,69.9,69.9,29.85,SSW,202,0.0,0.0,100,0.00,OVC,OVC,0.00,WeatherDisplay:10.33,2016-07-26 12:00:00,
2016-07-26 05:15:00,69.8,69.8,29.86,SSW,202,0.0,0.0,100,0.00,OVC,OVC,0.00,WeatherDisplay:10.33,2016-07-26 12:15:00,
2016-07-26 05:30:00,70.3,70.3,29.86,SSW,202,0.0,0.0,100,0.00,OVC,OVC,0.00,WeatherDisplay:10.33,2016-07-26 12:30:00,
2016-07-26 05:45:00,69.8,69.8,29.87,SSW,202,0.0,0.0,100,0.00,OVC,OVC,0.00,WeatherDisplay:10.33,2016-07-26 12:45:00,
2016-07-26 06:00:00,69.4,69.4,29.87,SSW,202,0.0,0.0,100,0.00,OVC,OVC,0.00,WeatherDisplay:10.33,2016-07-26 13:00:00,
2016-07-26 06:15:00,69.4,69.4,29.88,SSW,202,0.0,0.0,100,0.00,OVC,OVC,0.00,WeatherDisplay:10.33,2016-07-26 13:15:00,
2016-07-26 06:30:00,69.8,69.8,29.88,SSW,202,0.0,0.0,100,0.00,OVC,OVC,0.00,WeatherDisplay:10.33,2016-07-26 13:30:00,
2016-07-26 06:45:00,70.3,70.3,29.89,SSW,202,0.0,0.0,100,0.00,OVC,OVC,0.00,WeatherDisplay:10.33,2016-07-26 13:45:00,
2016-07-26 07:00:00,70.6,70.6,29.89,SSW,202,0.0,0.0,100,0.00,BKN,BKN,0.00,WeatherDisplay:10.33,2016-07-26 14:00:00,
2016-07-26 07:15:00,70.9,70.9,29.89,SSW,202,0.0,0.0,100,0.00,SCT,SCT,0.00,WeatherDisplay:10.33,2016-07-26 14:15:00,
2016-07-26 07:30:00,71.8,71.8,29.89,SSW,202,0.0,0.0,100,0.00,SCT,SCT,0.00,WeatherDisplay:10.33,2016-07-26 14:30:00,
2016-07-26 07:45:00,72.7,72.7,29.90,SSW,202,0.0,0.0,100,0.00,SCT,SCT,0.00,WeatherDisplay:10.33,2016-07-26 14:45:00,
2016-07-26 08:00:00,72.8,72.8,29.91,SSW,202,0.0,0.0,100,0.00,FEW,FEW,0.00,WeatherDisplay:10.33,2016-07-26 15:00:00,
2016-07-26 08:15:00,73.5,73.5,29.91,SSW,202,0.0,0.0,100,0.00,SCT,SCT,0.00,WeatherDisplay:10.33,2016-07-26 15:15:00,
2016-07-26 08:30:00,74.8,74.8,29.90,SSW,202,0.0,0.0,100,0.00,SCT,SCT,0.00,WeatherDisplay:10.33,2016-07-26 15:30:00,
2016-07-26 08:45:00,76.3,76.3,29.90,SSW,202,0.0,0.0,100,0.00,SCT,SCT,0.00,WeatherDisplay:10.33,2016-07-26 15:45:00,
2016-07-26 09:00:00,77.6,77.6,29.89,SSW,202,0.0,0.0,100,0.00,SCT,SCT,0.00,WeatherDisplay:10.33,2016-07-26 16:00:00,
2016-07-26 09:15:00,80.8,80.8,29.89,SSW,202,0.0,0.0,100,0.00,SCT,SCT,0.00,WeatherDisplay:10.33,2016-07-26 16:15:00,
2016-07-26 09:30:00,80.3,80.3,29.88,SW,225,2.0,5.0,100,0.00,SCT,SCT,0.00,WeatherDisplay:10.33,2016-07-26 16:30:00,
2016-07-26 09:45:00,81.1,81.1,29.88,SW,236,1.0,6.0,100,0.00,SCT,SCT,0.00,WeatherDisplay:10.33,2016-07-26 16:45:00,
2016-07-26 10:00:00,82.8,82.8,29.87,WSW,251,3.0,6.0,100,0.00,SCT,SCT,0.00,WeatherDisplay:10.33,2016-07-26 17:00:00,
2016-07-26 10:15:00,84.0,84.0,29.87,SW,232,2.0,7.0,100,0.00,SCT,SCT,0.00,WeatherDisplay:10.33,2016-07-26 17:15:00,
2016-07-26 10:30:00,82.2,82.2,29.88,SSW,202,3.0,12.0,100,0.00,SCT,SCT,0.00,WeatherDisplay:10.33,2016-07-26 17:30:00,
2016-07-26 10:45:00,83.6,83.6,29.87,SW,226,3.0,10.0,100,0.00,SCT,SCT,0.00,WeatherDisplay:10.33,2016-07-26 17:45:00,
2016-07-26 11:00:00,84.0,84.0,29.87,SW,218,7.0,10.0,100,0.00,SCT,SCT,0.00,WeatherDisplay:10.33,2016-07-26 18:00:00,
2016-07-26 11:15:00,84.1,84.1,29.87,SSW,211,7.0,12.0,100,0.00,SCT,SCT,0.00,WeatherDisplay:10.33,2016-07-26 18:15:00,
2016-07-26 11:30:00,84.9,84.9,29.87,SW,218,7.0,13.0,100,0.00,SCT,SCT,0.00,WeatherDisplay:10.33,2016-07-26 18:30:00,
2016-07-26 11:45:00,86.3,86.3,29.86,SW,224,5.0,12.0,100,0.00,SCT,SCT,0.00,WeatherDisplay:10.33,2016-07-26 18:45:00,
2016-07-26 12:00:00,86.9,86.9,29.86,SSW,211,5.0,12.0,100,0.00,SCT,SCT,0.00,WeatherDisplay:10.33,2016-07-26 19:00:00,
2016-07-26 12:15:00,87.7,87.7,29.85,SW,223,5.0,10.0,100,0.00,SCT,SCT,0.00,WeatherDisplay:10.33,2016-07-26 19:15:00,
2016-07-26 12:30:00,88.0,88.0,29.85,WSW,242,6.0,10.0,100,0.00,SCT,SCT,0.00,WeatherDisplay:10.33,2016-07-26 19:30:00,
2016-07-26 12:45:00,87.8,87.8,29.85,SW,229,3.0,12.0,100,0.00,SCT,SCT,0.00,WeatherDisplay:10.33,2016-07-26 19:45:00,
2016-07-26 13:00:00,87.0,87.0,29.85,SW,215,7.0,12.0,100,0.00,SCT,SCT,0.00,WeatherDisplay:10.33,2016-07-26 20:00:00,
2016-07-26 13:15:00,85.9,85.9,29.85,SSW,207,6.0,13.0,100,0.00,SCT,SCT,0.00,WeatherDisplay:10.33,2016-07-26 20:15:00,
2016-07-26 13:30:00,87.0,87.0,29.85,SW,229,6.0,14.0,100,0.00,SCT,SCT,0.00,WeatherDisplay:10.33,2016-07-26 20:30:00,
2016-07-26 13:45:00,88.0,88.0,29.85,WSW,240,6.0,12.0,100,0.00,SCT,SCT,0.00,WeatherDisplay:10.33,2016-07-26 20:45:00,
2016-07-26 14:00:00,88.3,88.3,29.85,WSW,238,5.0,12.0,100,0.00,SCT,SCT,0.00,WeatherDisplay:10.33,2016-07-26 21:00:00,
2016-07-26 14:15:00,87.9,87.9,29.84,SW,220,6.0,12.0,100,0.00,OVC,OVC,0.00,WeatherDisplay:10.33,2016-07-26 21:15:00,
2016-07-26 14:30:00,88.3,88.3,29.84,SW,222,5.0,10.0,100,0.00,OVC,OVC,0.00,WeatherDisplay:10.33,2016-07-26 21:30:00,